createdAt,value
2022-11-20T00:02:42.603Z,-2.20
2022-11-20T00:05:46.387Z,-2.20
2022-11-20T00:08:51.181Z,-2.23
2022-11-20T00:11:55.312Z,-2.27
2022-11-20T00:14:59.425Z,-2.26
2022-11-20T00:18:03.595Z,-2.24
2022-11-20T00:21:13.029Z,-2.38
2022-11-20T00:24:16.988Z,-2.39
2022-11-20T00:27:21.074Z,-2.41
2022-11-20T00:30:24.918Z,-2.42
2022-11-20T00:33:29.163Z,-2.45
2022-11-20T00:36:34.691Z,-2.49
2022-11-20T00:39:38.809Z,-2.48
2022-11-20T00:42:42.593Z,-2.47
2022-11-20T00:45:46.456Z,-2.51
2022-11-20T00:48:50.678Z,-2.48
2022-11-20T00:51:54.768Z,-2.50
2022-11-20T00:54:58.429Z,-2.43
2022-11-20T00:58:04.553Z,-2.34
2022-11-20T01:01:32.589Z,-2.39
2022-11-20T01:04:36.497Z,-2.46
2022-11-20T01:07:40.478Z,-2.48
2022-11-20T01:10:44.404Z,-2.52
2022-11-20T01:13:49.992Z,-2.46
2022-11-20T01:16:54.276Z,-2.47
2022-11-20T01:19:58.352Z,-2.54
2022-11-20T01:23:03.231Z,-2.60
2022-11-20T01:26:10.381Z,-2.62
2022-11-20T01:29:16.930Z,-2.63
2022-11-20T01:32:21.107Z,-2.69
2022-11-20T01:35:25.033Z,-2.72
2022-11-20T01:38:29.313Z,-2.78
2022-11-20T01:41:53.217Z,-2.74
2022-11-20T01:45:01.172Z,-2.78
2022-11-20T01:48:05.158Z,-2.83
2022-11-20T01:51:20.053Z,-2.90
2022-11-20T01:54:39.289Z,-2.85
2022-11-20T01:57:45.072Z,-2.85
2022-11-20T02:00:49.694Z,-2.90
2022-11-20T02:03:54.113Z,-2.94
2022-11-20T02:07:01.581Z,-2.94
2022-11-20T02:10:05.626Z,-2.97
2022-11-20T02:13:28.843Z,-3.00
2022-11-20T02:16:40.205Z,-2.98
2022-11-20T02:19:44.433Z,-2.95
2022-11-20T02:23:03.522Z,-2.91
2022-11-20T02:26:12.159Z,-2.90
2022-11-20T02:29:20.687Z,-2.84
2022-11-20T02:32:30.781Z,-2.83
2022-11-20T02:35:34.847Z,-2.90
2022-11-20T02:38:39.035Z,-2.91
2022-11-20T02:41:43.347Z,-2.92
2022-11-20T02:44:47.420Z,-2.95
2022-11-20T02:47:52.439Z,-3.04
2022-11-20T02:50:56.610Z,-3.06
2022-11-20T02:54:01.062Z,-3.04
2022-11-20T02:57:04.993Z,-3.05
2022-11-20T03:00:09.994Z,-3.07
2022-11-20T03:03:13.904Z,-3.11
2022-11-20T03:06:18.035Z,-3.09
2022-11-20T03:09:22.641Z,-3.12
2022-11-20T03:12:26.722Z,-3.18
2022-11-20T03:15:30.959Z,-3.19
2022-11-20T03:18:35.216Z,-3.18
2022-11-20T03:21:39.471Z,-3.26
2022-11-20T03:24:43.483Z,-3.19
2022-11-20T03:27:47.457Z,-3.11
2022-11-20T03:30:51.759Z,-3.21
2022-11-20T03:33:57.046Z,-3.21
2022-11-20T03:37:00.933Z,-3.21
2022-11-20T03:40:05.490Z,-3.18
2022-11-20T03:43:10.568Z,-3.19
2022-11-20T03:46:14.556Z,-3.23
2022-11-20T03:49:18.700Z,-3.22
2022-11-20T03:52:22.719Z,-3.24
2022-11-20T03:55:26.536Z,-3.22
2022-11-20T03:58:30.907Z,-3.09
2022-11-20T04:01:38.250Z,-3.19
2022-11-20T04:04:42.503Z,-3.10
2022-11-20T04:07:46.595Z,-3.19
2022-11-20T04:10:50.430Z,-3.27
2022-11-20T04:13:59.970Z,-3.23
2022-11-20T04:17:04.580Z,-3.30
2022-11-20T04:20:08.686Z,-3.33
2022-11-20T04:23:12.657Z,-3.30
2022-11-20T04:26:17.445Z,-3.35
2022-11-20T04:29:21.663Z,-3.41
2022-11-20T04:32:25.644Z,-3.35
2022-11-20T04:35:29.507Z,-3.38
2022-11-20T04:38:33.858Z,-3.49
2022-11-20T04:41:38.135Z,-3.46
2022-11-20T04:44:42.404Z,-3.47
2022-11-20T04:47:46.225Z,-3.50
2022-11-20T04:50:51.067Z,-3.47
2022-11-20T04:53:55.558Z,-3.41
2022-11-20T04:56:59.409Z,-3.53
2022-11-20T05:00:04.395Z,-3.58
2022-11-20T05:03:08.727Z,-3.57
2022-11-20T05:06:15.348Z,-3.55
2022-11-20T05:09:19.434Z,-3.61
2022-11-20T05:12:23.973Z,-3.65
2022-11-20T05:15:27.818Z,-3.65
2022-11-20T05:18:31.520Z,-3.73
2022-11-20T05:21:35.582Z,-3.75
2022-11-20T05:24:39.629Z,-3.71
2022-11-20T05:27:43.759Z,-3.71
2022-11-20T05:30:48.271Z,-3.80
2022-11-20T05:33:52.312Z,-3.80
2022-11-20T05:36:56.174Z,-3.73
2022-11-20T05:40:00.335Z,-3.71
2022-11-20T05:43:04.721Z,-3.75
2022-11-20T05:46:11.466Z,-3.78
2022-11-20T05:49:15.187Z,-3.83
2022-11-20T05:52:19.070Z,-3.82
2022-11-20T05:55:23.043Z,-3.84
2022-11-20T05:58:27.210Z,-3.87
2022-11-20T06:01:31.337Z,-3.85
2022-11-20T06:04:35.150Z,-3.85
2022-11-20T06:07:38.981Z,-3.88
2022-11-20T06:10:42.932Z,-3.91
2022-11-20T06:13:47.757Z,-3.92
2022-11-20T06:16:51.593Z,-3.87
2022-11-20T06:19:55.484Z,-3.87
2022-11-20T06:22:59.814Z,-3.86
2022-11-20T06:26:12.567Z,-3.89
2022-11-20T06:29:16.731Z,-3.85
2022-11-20T06:32:21.118Z,-3.81
2022-11-20T06:35:25.001Z,-3.80
2022-11-20T06:38:29.360Z,-3.84
2022-11-20T06:41:33.380Z,-3.85
2022-11-20T06:44:37.356Z,-3.82
2022-11-20T06:47:41.622Z,-3.73
2022-11-20T06:50:45.645Z,-3.67
2022-11-20T06:53:49.731Z,-3.78
2022-11-20T06:56:54.028Z,-3.68
2022-11-20T06:59:58.297Z,-3.70
2022-11-20T07:03:06.440Z,-3.67
2022-11-20T07:06:11.766Z,-3.70
2022-11-20T07:09:15.915Z,-3.70
2022-11-20T07:12:19.933Z,-3.70
2022-11-20T07:15:25.838Z,-3.67
2022-11-20T07:18:29.750Z,-3.78
2022-11-20T07:21:34.015Z,-3.73
2022-11-20T07:24:40.772Z,-3.78
2022-11-20T07:27:48.526Z,-3.79
2022-11-20T07:30:54.105Z,-3.70
2022-11-20T07:33:57.989Z,-3.72
2022-11-20T07:37:06.031Z,-3.70
2022-11-20T07:40:14.628Z,-3.61
2022-11-20T07:43:18.758Z,-3.57
2022-11-20T07:46:23.225Z,-3.50
2022-11-20T07:49:27.458Z,-3.49
2022-11-20T07:52:31.490Z,-3.41
2022-11-20T07:55:35.447Z,-3.31
2022-11-20T07:58:39.378Z,-3.26
2022-11-20T08:01:44.048Z,-3.31
2022-11-20T08:04:48.320Z,-3.27
2022-11-20T08:07:52.217Z,-3.18
2022-11-20T08:11:18.564Z,-3.21
2022-11-20T08:14:22.706Z,-3.05
2022-11-20T08:17:26.855Z,-2.98
2022-11-20T08:20:31.172Z,-2.93
2022-11-20T08:23:35.423Z,-2.81
2022-11-20T08:26:40.316Z,-2.59
2022-11-20T08:29:44.352Z,-2.35
2022-11-20T08:32:48.765Z,-2.24
2022-11-20T08:35:52.875Z,-2.10
2022-11-20T08:38:57.154Z,-1.87
2022-11-20T08:42:01.300Z,-1.78
2022-11-20T08:45:05.866Z,-1.78
2022-11-20T08:48:09.764Z,-1.72
2022-11-20T08:51:14.498Z,-1.69
2022-11-20T08:54:20.795Z,-1.60
2022-11-20T08:57:25.056Z,-1.44
2022-11-20T09:00:29.139Z,-1.31
2022-11-20T09:03:33.893Z,-1.14
2022-11-20T09:06:38.142Z,-1.05
2022-11-20T09:09:42.396Z,-1.01
2022-11-20T09:12:49.935Z,-0.98
2022-11-20T09:15:59.912Z,-0.90
2022-11-20T09:22:27.977Z,-0.91
2022-11-20T09:25:32.068Z,-0.88
2022-11-20T09:28:36.642Z,-0.97
2022-11-20T09:31:40.562Z,-1.04
2022-11-20T09:34:44.383Z,-1.06
2022-11-20T09:37:48.609Z,-1.17
2022-11-20T09:41:27.182Z,-1.05
2022-11-20T09:44:38.798Z,-0.98
2022-11-20T09:47:42.482Z,-0.92
2022-11-20T09:51:23.241Z,-0.84
2022-11-20T09:54:32.480Z,-0.71
2022-11-20T09:57:40.142Z,-0.64
2022-11-20T10:00:44.988Z,-0.67
2022-11-20T10:04:00.689Z,-0.69
2022-11-20T10:07:38.590Z,-0.73
2022-11-20T10:10:50.810Z,-0.74
2022-11-20T10:14:03.934Z,-0.58
2022-11-20T10:17:26.214Z,-0.55
2022-11-20T10:20:39.437Z,-0.62
2022-11-20T10:23:56.183Z,-0.50
2022-11-20T10:27:15.644Z,-0.49
2022-11-20T10:30:22.834Z,-0.48
2022-11-20T10:33:50.181Z,-0.61
2022-11-20T10:37:06.105Z,-0.58
2022-11-20T10:40:42.588Z,-0.55
2022-11-20T10:43:48.838Z,-0.50
2022-11-20T10:46:52.922Z,-0.45
2022-11-20T10:50:02.238Z,-0.27
2022-11-20T10:53:41.359Z,-0.27
2022-11-20T10:56:52.063Z,-0.31
2022-11-20T11:00:04.428Z,-0.27
2022-11-20T11:03:29.956Z,-0.34
2022-11-20T11:06:40.664Z,-0.33
2022-11-20T11:09:50.858Z,-0.19
2022-11-20T11:12:54.621Z,-0.04
2022-11-20T11:15:58.878Z,-0.04
2022-11-20T11:19:07.680Z,-0.02
2022-11-20T11:22:18.862Z,-0.07
2022-11-20T11:25:35.725Z,1.71
2022-11-20T11:28:39.747Z,1.19
2022-11-20T11:31:43.575Z,1.12
2022-11-20T11:35:00.625Z,1.14
2022-11-20T11:38:15.919Z,1.20
2022-11-20T11:41:32.461Z,1.27
2022-11-20T11:44:55.918Z,1.28
2022-11-20T11:48:04.585Z,1.19
2022-11-20T11:51:09.485Z,1.04
2022-11-20T11:54:21.018Z,0.92
2022-11-20T11:58:09.992Z,0.77
2022-11-20T12:01:35.559Z,0.62
2022-11-20T12:04:49.599Z,0.58
2022-11-20T12:08:27.586Z,0.55
2022-11-20T12:11:51.065Z,0.57
2022-11-20T12:14:56.259Z,0.57
2022-11-20T12:18:00.649Z,0.50
2022-11-20T12:21:30.099Z,0.57
2022-11-20T12:25:08.604Z,0.63
2022-11-20T12:28:31.085Z,0.64
2022-11-20T12:31:41.295Z,0.64
2022-11-20T12:35:16.339Z,0.59
2022-11-20T12:38:59.173Z,0.65
2022-11-20T12:42:30.926Z,0.58
2022-11-20T12:45:47.767Z,0.62
2022-11-20T12:49:30.432Z,0.74
2022-11-20T12:52:49.025Z,0.74
2022-11-20T12:55:53.291Z,0.66
2022-11-20T12:59:21.400Z,0.69
2022-11-20T13:02:39.734Z,0.80
2022-11-20T13:05:56.349Z,0.77
2022-11-20T13:09:01.599Z,0.80
2022-11-20T13:12:19.713Z,0.78
2022-11-20T13:15:41.086Z,0.84
2022-11-20T13:18:46.241Z,0.82
2022-11-20T13:21:51.492Z,0.79
2022-11-20T13:24:55.764Z,0.70
2022-11-20T13:28:03.903Z,0.74
2022-11-20T13:31:26.475Z,0.71
2022-11-20T13:34:31.072Z,0.68
2022-11-20T13:37:37.789Z,0.65
2022-11-20T13:41:00.226Z,0.68
2022-11-20T13:44:16.068Z,0.69
2022-11-20T13:47:29.017Z,0.65
2022-11-20T13:50:40.995Z,0.78
2022-11-20T13:54:02.078Z,0.67
2022-11-20T13:57:47.532Z,0.62
2022-11-20T14:01:27.028Z,0.70
2022-11-20T14:04:34.707Z,0.75
2022-11-20T14:07:43.026Z,0.70
2022-11-20T14:10:46.947Z,0.73
2022-11-20T14:14:17.292Z,0.59
2022-11-20T14:17:41.324Z,0.60
2022-11-20T14:20:45.975Z,0.61
2022-11-20T14:23:50.276Z,0.57
2022-11-20T14:26:54.057Z,0.60
2022-11-20T14:30:02.027Z,0.56
2022-11-20T14:33:06.522Z,0.51
2022-11-20T14:36:18.304Z,0.49
2022-11-20T14:39:23.517Z,0.52
2022-11-20T14:42:29.486Z,0.44
2022-11-20T14:45:33.398Z,0.38
2022-11-20T14:48:50.321Z,0.31
2022-11-20T14:52:03.971Z,0.34
2022-11-20T14:55:09.716Z,0.30
2022-11-20T14:58:25.602Z,0.23
2022-11-20T15:01:31.704Z,0.17
2022-11-20T15:04:49.141Z,0.10
2022-11-20T15:08:07.788Z,0.13
2022-11-20T15:11:28.649Z,0.07
2022-11-20T15:14:33.577Z,0.11
2022-11-20T15:17:41.016Z,0.05
2022-11-20T15:20:45.178Z,-0.04
2022-11-20T15:23:49.901Z,-0.10
2022-11-20T15:26:53.950Z,-0.17
2022-11-20T15:29:57.991Z,-0.21
2022-11-20T15:33:01.746Z,-0.20
2022-11-20T15:36:06.207Z,-0.28
2022-11-20T15:39:11.937Z,-0.31
2022-11-20T15:42:16.104Z,-0.33
2022-11-20T15:45:19.973Z,-0.28
2022-11-20T15:48:28.072Z,-0.34
2022-11-20T15:51:35.260Z,-0.41
2022-11-20T15:54:39.218Z,-0.44
2022-11-20T15:57:43.320Z,-0.45
2022-11-20T16:00:47.530Z,-0.43
2022-11-20T16:03:51.738Z,-0.45
2022-11-20T16:06:56.356Z,-0.49
2022-11-20T16:10:00.321Z,-0.57
2022-11-20T16:13:30.952Z,-0.59
2022-11-20T16:16:40.127Z,-0.64
2022-11-20T16:19:44.218Z,-0.62
2022-11-20T16:22:48.399Z,-0.66
2022-11-20T16:25:52.895Z,-0.65
2022-11-20T16:28:57.400Z,-0.66
2022-11-20T16:32:01.571Z,-0.70
2022-11-20T16:35:06.264Z,-0.73
2022-11-20T16:38:10.843Z,-0.72
2022-11-20T16:41:15.083Z,-0.75
2022-11-20T16:44:19.392Z,-0.81
2022-11-20T16:47:23.674Z,-0.80
2022-11-20T16:50:27.772Z,-0.78
2022-11-20T16:53:33.769Z,-0.78
2022-11-20T16:56:39.132Z,-0.84
2022-11-20T16:59:43.300Z,-0.85
2022-11-20T17:02:47.481Z,-0.90
2022-11-20T17:05:51.697Z,-0.91
2022-11-20T17:08:56.765Z,-0.88
2022-11-20T17:12:01.318Z,-0.85
2022-11-20T17:15:05.679Z,-0.85
2022-11-20T17:18:10.019Z,-0.86
2022-11-20T17:21:14.158Z,-0.93
2022-11-20T17:24:18.355Z,-0.92
2022-11-20T17:27:22.290Z,-0.96
2022-11-20T17:30:27.240Z,-0.99
2022-11-20T17:33:31.389Z,-1.00
2022-11-20T17:36:37.672Z,-1.07
2022-11-20T17:39:44.872Z,-1.11
2022-11-20T17:42:49.110Z,-1.17
2022-11-20T17:45:53.014Z,-1.15
2022-11-20T17:48:57.423Z,-1.20
2022-11-20T17:52:01.679Z,-1.15
2022-11-20T17:55:06.365Z,-1.18
2022-11-20T17:58:11.546Z,-1.17
2022-11-20T18:01:16.763Z,-1.14
2022-11-20T18:04:21.186Z,-1.24
2022-11-20T18:07:25.807Z,-1.19
2022-11-20T18:10:31.097Z,-1.18
2022-11-20T18:13:55.071Z,-1.17
2022-11-20T18:17:03.849Z,-1.13
2022-11-20T18:23:33.923Z,-1.10
2022-11-20T18:26:43.878Z,-1.11
2022-11-20T18:29:51.707Z,-1.10
2022-11-20T18:32:56.010Z,-1.06
2022-11-20T18:36:15.617Z,-1.02
2022-11-20T18:39:19.558Z,-1.01
2022-11-20T18:42:42.095Z,-1.01
2022-11-20T18:45:46.135Z,-1.01
2022-11-20T18:48:50.407Z,-0.98
2022-11-20T18:51:55.069Z,-0.99
2022-11-20T18:54:58.909Z,-0.95
2022-11-20T18:58:03.221Z,-0.88
2022-11-20T19:01:08.440Z,-0.86
2022-11-20T19:04:14.776Z,-0.77
2022-11-20T19:07:18.795Z,-0.77
2022-11-20T19:10:24.308Z,-0.76
2022-11-20T19:13:31.183Z,-0.75
2022-11-20T19:16:35.541Z,-0.73
2022-11-20T19:19:39.664Z,-0.64
2022-11-20T19:22:43.745Z,-0.61
2022-11-20T19:25:48.513Z,-0.66
2022-11-20T19:28:52.530Z,-0.62
2022-11-20T19:31:57.778Z,-0.61
2022-11-20T19:35:02.054Z,-0.56
2022-11-20T19:38:06.303Z,-0.41
2022-11-20T19:41:10.567Z,-0.36
2022-11-20T19:44:16.061Z,-0.30
2022-11-20T19:47:20.059Z,-0.36
2022-11-20T19:50:23.888Z,-0.24
2022-11-20T19:53:29.962Z,-0.20
2022-11-20T19:56:34.523Z,-0.21
2022-11-20T19:59:38.848Z,-0.18
2022-11-20T20:02:43.826Z,-0.10
2022-11-20T20:05:48.010Z,0.20
2022-11-20T20:09:12.950Z,0.24
2022-11-20T20:12:17.312Z,0.12
2022-11-20T20:15:21.519Z,0.04
2022-11-20T20:18:25.682Z,0.00
2022-11-20T20:21:30.809Z,-0.01
2022-11-20T20:24:34.740Z,0.06
2022-11-20T20:27:38.969Z,0.07
2022-11-20T20:30:43.041Z,0.24
2022-11-20T20:33:47.212Z,0.27
2022-11-20T20:36:51.532Z,0.24
2022-11-20T20:39:55.879Z,0.26
2022-11-20T20:42:59.934Z,0.30
2022-11-20T20:46:03.772Z,0.21
2022-11-20T20:49:08.615Z,0.37
2022-11-20T20:52:12.787Z,0.29
2022-11-20T20:55:17.169Z,0.29
2022-11-20T20:58:21.149Z,0.26
2022-11-20T21:01:28.726Z,0.54
2022-11-20T21:04:33.818Z,0.41
2022-11-20T21:07:57.927Z,0.40
2022-11-20T21:11:08.014Z,0.42
2022-11-20T21:14:11.797Z,0.44
2022-11-20T21:17:16.018Z,0.40
2022-11-20T21:20:38.761Z,0.40
2022-11-20T21:23:46.256Z,0.48
2022-11-20T21:26:52.128Z,0.51
2022-11-20T21:29:56.370Z,0.52
2022-11-20T21:33:00.892Z,0.54
2022-11-20T21:36:05.956Z,0.63
2022-11-20T21:39:10.975Z,0.63
2022-11-20T21:42:15.253Z,0.46
2022-11-20T21:45:19.720Z,0.61
2022-11-20T21:48:28.252Z,0.62
2022-11-20T21:51:33.252Z,0.62
2022-11-20T21:54:37.340Z,0.81
2022-11-20T21:57:41.271Z,0.78
2022-11-20T22:00:45.547Z,0.58
2022-11-20T22:03:51.756Z,0.59
2022-11-20T22:06:55.966Z,0.62
2022-11-20T22:09:59.948Z,0.51
2022-11-20T22:13:22.226Z,0.63
2022-11-20T22:16:26.732Z,0.59
2022-11-20T22:19:31.099Z,0.48
2022-11-20T22:22:35.413Z,0.54
2022-11-20T22:25:39.666Z,0.68
2022-11-20T22:28:47.434Z,0.57
2022-11-20T22:31:52.925Z,0.62
2022-11-20T22:34:56.541Z,0.53
2022-11-20T22:38:00.326Z,0.59
2022-11-20T22:41:12.465Z,0.60
2022-11-20T22:44:16.901Z,0.66
2022-11-20T22:47:21.086Z,0.61
2022-11-20T22:50:25.358Z,0.68
2022-11-20T22:53:29.179Z,0.80
2022-11-20T22:56:33.841Z,0.70
2022-11-20T22:59:37.978Z,0.70
2022-11-20T23:02:46.430Z,0.73
2022-11-20T23:05:50.515Z,0.57
2022-11-20T23:08:55.525Z,0.59
2022-11-20T23:11:59.909Z,0.46
2022-11-20T23:15:04.231Z,0.57
2022-11-20T23:18:08.158Z,0.48
2022-11-20T23:21:14.860Z,0.48
2022-11-20T23:24:19.584Z,0.56
2022-11-20T23:27:28.216Z,0.55
2022-11-20T23:30:32.851Z,0.46
2022-11-20T23:33:42.413Z,0.58
2022-11-20T23:36:46.363Z,0.56
2022-11-20T23:39:50.080Z,0.47
2022-11-20T23:43:12.834Z,0.42
2022-11-20T23:46:17.211Z,0.40
2022-11-20T23:49:21.143Z,0.43
2022-11-20T23:52:26.339Z,0.43
2022-11-20T23:55:30.560Z,0.42
2022-11-20T23:58:38.747Z,0.47
